Time;durP1;ratioP1;P1;durP2;ratioP2;P2;SDS_P1;SDS_P2;PMS_P1;PMS_P2;Temp;Humidity;BMP_temperature;BMP_pressure;BME280_temperature;BME280_humidity;BME280_pressure;Samples;Min_cycle;Max_cycle;Signal;HPM_P1;HPM_P2
2022/06/16 00:00:53;;;;;;;9.88;4.35;;;;;;;12.18;100.00;98805.03;5076587;28;20036;-90
2022/06/16 00:03:19;;;;;;;10.70;4.50;;;;;;;12.11;100.00;98795.56;5078079;28;20052;-90
2022/06/16 00:05:45;;;;;;;11.85;4.95;;;;;;;12.07;100.00;98807.78;5073522;28;20029;-90
2022/06/16 00:08:12;;;;;;;10.50;4.47;;;;;;;12.06;100.00;98802.59;5059790;28;20036;-90
2022/06/16 00:11:16;;;;;;;12.05;4.68;;;;;;;12.03;100.00;98800.88;5080055;28;20028;-90
2022/06/16 00:13:25;;;;;;;9.90;4.35;;;;;;;12.04;100.00;98797.38;5066673;28;20484;-90
2022/06/16 00:15:50;;;;;;;9.57;3.83;;;;;;;12.00;100.00;98795.69;5063554;28;20058;-90
2022/06/16 00:18:16;;;;;;;12.07;4.50;;;;;;;12.11;100.00;98801.63;5062086;28;20240;-91
2022/06/16 00:20:42;;;;;;;9.02;3.97;;;;;;;12.18;100.00;98794.56;5060931;28;20025;-89
2022/06/16 00:23:08;;;;;;;12.20;3.90;;;;;;;12.17;100.00;98805.06;5061651;28;20033;-90
2022/06/16 00:25:34;;;;;;;11.70;3.40;;;;;;;12.14;100.00;98803.34;5065131;28;20027;-90
2022/06/16 00:27:59;;;;;;;10.38;3.20;;;;;;;12.08;100.00;98806.03;5067635;28;20029;-90
2022/06/16 00:30:25;;;;;;;10.82;3.80;;;;;;;11.99;100.00;98814.03;5064252;28;20030;-90
2022/06/16 00:32:54;;;;;;;9.40;3.58;;;;;;;11.90;100.00;98805.38;5065622;28;20863;-90
2022/06/16 00:35:19;;;;;;;9.57;3.45;;;;;;;11.87;100.00;98805.44;5063568;28;20056;-89
2022/06/16 00:37:52;;;;;;;9.85;3.80;;;;;;;11.92;100.00;98807.97;5063815;28;20064;-90
2022/06/16 00:40:17;;;;;;;8.23;3.13;;;;;;;12.04;100.00;98806.97;5063080;28;20048;-90
2022/06/16 00:42:45;;;;;;;10.35;3.22;;;;;;;12.05;100.00;98800.84;5063276;28;20405;-90
2022/06/16 00:45:41;;;;;;;8.73;3.50;;;;;;;12.00;100.00;98808.75;5063559;28;20028;-90
2022/06/16 00:48:08;;;;;;;7.47;2.70;;;;;;;11.93;100.00;98801.88;5058370;28;20097;-90
2022/06/16 00:50:33;;;;;;;8.30;2.95;;;;;;;11.84;100.00;98800.22;5060638;28;20063;-91
2022/06/16 00:52:59;;;;;;;8.70;2.80;;;;;;;11.82;100.00;98807.22;5065344;28;20020;-90
2022/06/16 00:55:26;;;;;;;8.00;2.80;;;;;;;11.89;100.00;98808.88;5065001;28;20056;-90
2022/06/16 00:57:53;;;;;;;9.57;2.95;;;;;;;11.88;100.00;98799.31;5064369;28;20029;-89
2022/06/16 01:00:26;;;;;;;7.50;2.80;;;;;;;11.86;100.00;98795.84;5095647;28;20064;-91
2022/06/16 01:02:51;;;;;;;8.85;2.78;;;;;;;11.95;100.00;98802.72;5064136;28;20036;-90
2022/06/16 01:05:17;;;;;;;10.93;2.60;;;;;;;11.97;100.00;98805.31;5070941;28;20058;-90
2022/06/16 01:07:46;;;;;;;9.75;2.65;;;;;;;12.03;100.00;98802.63;5061489;28;20035;-90
2022/06/16 01:10:14;;;;;;;7.95;2.60;;;;;;;12.08;100.00;98801.69;5093315;28;20077;-90
2022/06/16 01:16:10;;;;;;;7.45;2.65;;;;;;;11.91;100.00;98801.00;5071880;28;20075;-90
2022/06/16 01:19:03;;;;;;;8.88;2.70;;;;;;;11.84;100.00;98792.38;5076467;28;20059;-90
2022/06/16 01:21:47;;;;;;;7.72;2.40;;;;;;;11.75;100.00;98800.38;5098723;28;20036;-91
2022/06/16 01:24:27;;;;;;;7.30;2.15;;;;;;;11.72;100.00;98803.88;5099252;27;20037;-91
2022/06/16 01:27:37;;;;;;;7.13;2.20;;;;;;;11.78;100.00;98793.34;5073130;28;20086;-90
2022/06/16 01:30:16;;;;;;;7.00;2.13;;;;;;;11.73;100.00;98795.16;4997453;28;20110;-89
2022/06/16 01:33:06;;;;;;;7.75;2.10;;;;;;;11.61;100.00;98798.78;4970638;28;20030;-89
2022/06/16 01:35:40;;;;;;;6.75;2.17;;;;;;;11.58;100.00;98798.84;4979186;28;20137;-90
2022/06/16 01:38:14;;;;;;;5.60;1.67;;;;;;;11.51;100.00;98794.56;4969990;28;20077;-90
2022/06/16 01:40:54;;;;;;;7.95;2.10;;;;;;;11.53;100.00;98807.59;4982056;28;20077;-89
2022/06/16 01:43:25;;;;;;;6.72;2.05;;;;;;;11.50;100.00;98813.72;4972740;28;20038;-89
2022/06/16 01:46:06;;;;;;;7.78;2.22;;;;;;;11.46;100.00;98809.44;4981467;28;20045;-89
2022/06/16 01:48:34;;;;;;;7.90;2.17;;;;;;;11.53;100.00;98812.84;4985811;28;20038;-89
2022/06/16 01:51:09;;;;;;;8.40;2.30;;;;;;;11.46;100.00;98824.25;4968598;28;20424;-89
2022/06/16 01:53:35;;;;;;;6.65;2.00;;;;;;;11.42;100.00;98826.00;4967705;28;20057;-90
2022/06/16 01:56:16;;;;;;;6.20;2.15;;;;;;;11.32;100.00;98837.44;4984788;28;20042;-89
2022/06/16 01:58:48;;;;;;;7.85;2.50;;;;;;;11.23;100.00;98836.66;4985681;28;20049;-89
2022/06/16 02:01:18;;;;;;;8.52;2.47;;;;;;;11.15;100.00;98837.59;5032107;28;20127;-89
2022/06/16 02:03:51;;;;;;;7.38;2.50;;;;;;;11.10;100.00;98833.28;5061896;28;20036;-89
2022/06/16 02:06:20;;;;;;;;;;;;;;;11.03;100.00;98843.81;5066970;28;20064;-89
2022/06/16 02:08:53;;;;;;;9.23;2.45;;;;;;;11.00;100.00;98829.06;5067799;28;19919;-89
2022/06/16 02:11:32;;;;;;;6.88;2.38;;;;;;;11.02;100.00;98829.03;5061193;28;20024;-89
2022/06/16 02:14:12;;;;;;;8.05;2.35;;;;;;;11.05;100.00;98819.44;5091653;28;20036;-90
2022/06/16 02:16:39;;;;;;;9.02;2.80;;;;;;;11.06;100.00;98821.19;5065419;28;20031;-89
2022/06/16 02:19:10;;;;;;;8.68;2.63;;;;;;;11.08;100.00;98821.16;5059642;28;20024;-89
2022/06/16 02:21:39;;;;;;;8.40;2.78;;;;;;;11.08;100.00;98819.41;5061585;28;20025;-89
2022/06/16 02:24:08;;;;;;;11.88;2.95;;;;;;;11.00;100.00;98815.16;5062118;28;20032;-89
2022/06/16 02:26:34;;;;;;;9.52;2.60;;;;;;;10.99;100.00;98813.41;5063747;28;20035;-88
2022/06/16 02:29:18;;;;;;;9.40;2.70;;;;;;;10.99;100.00;98803.81;5065697;28;20623;-90
2022/06/16 02:32:01;;;;;;;13.55;2.80;;;;;;;11.00;100.00;98815.16;5064688;28;20032;-89
2022/06/16 02:35:04;;;;;;;8.13;3.00;;;;;;;10.85;100.00;98817.00;5065247;28;20029;-88
2022/06/16 02:37:50;;;;;;;10.00;3.00;;;;;;;10.80;100.00;98815.31;5063457;28;20032;-88
2022/06/16 02:40:34;;;;;;;7.40;2.55;;;;;;;11.02;100.00;98802.94;5043779;28;20090;-89
2022/06/16 02:43:09;;;;;;;10.20;2.88;;;;;;;11.00;100.00;98810.78;5084766;28;20032;-88
2022/06/16 02:45:50;;;;;;;10.07;2.65;;;;;;;10.90;100.00;98810.00;5069766;28;20115;-90
2022/06/16 02:48:25;;;;;;;7.95;2.70;;;;;;;10.92;100.00;98808.28;5070137;28;20024;-89
2022/06/16 02:51:05;;;;;;;9.77;3.22;;;;;;;10.84;100.00;98812.69;5106708;27;20079;-89
2022/06/16 02:57:00;;;;;;;7.65;2.60;;;;;;;10.93;100.00;98812.59;5080049;28;20072;-89
2022/06/16 02:59:47;;;;;;;10.15;2.58;;;;;;;10.98;100.00;98812.56;5072922;28;20027;-90
2022/06/16 03:02:19;;;;;;;7.10;2.42;;;;;;;10.98;100.00;98803.84;5068335;28;20605;-89
2022/06/16 03:04:50;;;;;;;9.88;2.75;;;;;;;10.98;100.00;98814.28;5064956;28;20029;-89
2022/06/16 03:10:58;;;;;;;8.25;3.10;;;;;;;10.80;100.00;98807.50;5051260;28;20045;-89
2022/06/16 03:13:30;;;;;;;8.38;2.95;;;;;;;10.75;100.00;98804.94;5049471;28;20592;-89
2022/06/16 03:16:00;;;;;;;10.77;3.00;;;;;;;10.83;100.00;98797.03;5021627;28;20044;-89
2022/06/16 03:18:29;;;;;;;11.95;3.35;;;;;;;11.00;100.00;98805.56;5030026;28;20052;-89
2022/06/16 03:20:55;;;;;;;10.77;3.08;;;;;;;11.02;100.00;98802.94;5030606;28;20039;-88
2022/06/16 03:23:21;;;;;;;10.73;3.20;;;;;;;11.01;100.00;98809.03;5025623;28;20132;-89
2022/06/16 03:25:47;;;;;;;10.10;3.08;;;;;;;11.02;100.00;98808.16;5000501;28;20035;-89
2022/06/16 03:28:13;;;;;;;11.15;3.28;;;;;;;11.03;100.00;98802.06;5028969;28;20602;-90
2022/06/16 03:30:39;;;;;;;10.32;2.58;;;;;;;11.01;100.00;98806.41;5013656;28;20061;-88
2022/06/16 03:33:08;;;;;;;9.45;2.85;;;;;;;10.95;100.00;98807.34;5009186;28;20093;-89
2022/06/16 03:35:34;;;;;;;7.65;3.03;;;;;;;10.89;100.00;98812.63;5036051;28;20068;-89
2022/06/16 03:38:03;;;;;;;7.78;2.50;;;;;;;10.87;100.00;98815.25;5039821;28;20040;-89
2022/06/16 03:40:29;;;;;;;9.95;2.88;;;;;;;10.76;100.00;98807.53;5040748;28;20246;-90
2022/06/16 03:42:54;;;;;;;10.70;2.63;;;;;;;10.84;100.00;98809.19;5069002;28;20044;-90
2022/06/16 03:45:20;;;;;;;8.38;2.70;;;;;;;10.83;100.00;98818.78;5072695;28;20051;-89
2022/06/16 03:47:46;;;;;;;6.70;2.70;;;;;;;10.83;100.00;98824.00;5084854;28;20028;-89
2022/06/16 03:50:15;;;;;;;7.03;2.50;;;;;;;10.81;100.00;98823.13;5078647;28;20028;-91
2022/06/16 03:52:41;;;;;;;8.63;2.60;;;;;;;10.81;100.00;98828.34;5067913;28;20120;-90
2022/06/16 03:55:08;;;;;;;13.35;2.72;;;;;;;10.90;100.00;98820.44;5068374;28;20128;-90
2022/06/16 03:57:33;;;;;;;9.25;2.67;;;;;;;10.85;100.00;98821.38;5067078;28;20035;-90
2022/06/16 04:00:00;;;;;;;7.50;2.40;;;;;;;10.75;100.00;98825.81;5065852;28;20492;-91
2022/06/16 04:02:26;;;;;;;8.18;2.22;;;;;;;10.87;100.00;98822.22;5066923;28;20101;-91
2022/06/16 04:04:52;;;;;;;7.32;2.28;;;;;;;11.19;100.00;98815.81;5067403;28;20558;-91
2022/06/16 04:07:18;;;;;;;9.73;2.28;;;;;;;11.15;100.00;98814.09;5099866;28;20217;-91
2022/06/16 04:09:44;;;;;;;7.43;2.50;;;;;;;11.08;100.00;98816.78;5069733;28;20411;-91
2022/06/16 04:12:12;;;;;;;7.07;2.53;;;;;;;11.06;100.00;98825.53;5070394;28;20499;-91
2022/06/16 04:14:38;;;;;;;10.68;2.65;;;;;;;11.01;100.00;98830.78;5065422;28;20032;-91
2022/06/16 04:17:04;;;;;;;9.07;2.22;;;;;;;11.05;100.00;98827.28;5098492;28;20366;-90
2022/06/16 04:19:29;;;;;;;11.73;2.65;;;;;;;11.01;100.00;98832.50;5063435;28;20044;-89
2022/06/16 04:21:55;;;;;;;6.47;2.15;;;;;;;11.03;100.00;98839.47;5099990;28;20051;-91
2022/06/16 04:24:22;;;;;;;7.32;2.00;;;;;;;10.96;100.00;98848.22;5070999;28;20035;-91
2022/06/16 04:26:51;;;;;;;9.18;2.20;;;;;;;11.10;100.00;98842.88;5067836;28;20123;-91
2022/06/16 04:29:18;;;;;;;8.27;2.00;;;;;;;11.08;100.00;98852.47;5066947;28;20033;-91
2022/06/16 04:31:44;;;;;;;7.90;2.40;;;;;;;11.09;100.00;98862.91;5068663;28;20060;-91
2022/06/16 04:34:09;;;;;;;7.97;2.30;;;;;;;11.02;100.00;98869.06;5067661;28;20036;-90
2022/06/16 04:36:36;;;;;;;7.53;2.40;;;;;;;10.96;100.00;98871.72;5064537;28;20043;-91
2022/06/16 04:39:01;;;;;;;9.00;2.60;;;;;;;10.99;100.00;98876.03;5067714;28;20035;-90
2022/06/16 04:41:27;;;;;;;8.73;2.20;;;;;;;11.04;100.00;98874.28;5063199;28;20032;-91
2022/06/16 04:43:52;;;;;;;6.15;2.20;;;;;;;11.01;100.00;98869.06;5063074;28;20405;-91
2022/06/16 04:46:20;;;;;;;7.65;2.40;;;;;;;11.06;100.00;98873.38;5065068;28;20051;-90
2022/06/16 04:48:45;;;;;;;7.65;2.28;;;;;;;11.07;100.00;98875.09;5063155;28;20028;-91
2022/06/16 04:51:41;;;;;;;7.82;2.15;;;;;;;11.11;100.00;98878.53;5064096;28;20616;-91
2022/06/16 04:54:39;;;;;;;7.82;2.30;;;;;;;11.15;100.00;98892.41;5049884;28;20066;-91
2022/06/16 04:57:05;;;;;;;8.00;2.30;;;;;;;11.27;100.00;98894.91;5064928;28;20052;-92
2022/06/16 04:59:30;;;;;;;11.23;2.83;;;;;;;11.34;100.00;98877.44;5051421;28;20028;-91
2022/06/16 05:01:55;;;;;;;7.28;2.00;;;;;;;11.44;100.00;98879.97;5064934;28;20056;-90
2022/06/16 05:04:21;;;;;;;8.48;2.10;;;;;;;11.55;100.00;98884.19;5065849;28;20028;-90
2022/06/16 05:06:47;;;;;;;8.43;2.30;;;;;;;11.64;100.00;98899.78;5067541;28;20037;-91
2022/06/16 05:09:15;;;;;;;10.38;2.30;;;;;;;11.71;100.00;98890.13;5064554;28;20554;-90
2022/06/16 05:11:41;;;;;;;6.20;1.90;;;;;;;11.78;100.00;98897.84;5049044;28;20047;-89
2022/06/16 05:14:06;;;;;;;8.07;2.40;;;;;;;11.84;100.00;98877.75;5063955;28;20032;-91
2022/06/16 05:16:32;;;;;;;7.90;2.10;;;;;;;12.10;100.00;98890.53;5048413;28;20084;-91
2022/06/16 05:19:01;;;;;;;7.72;2.40;;;;;;;12.22;100.00;98876.41;5066988;28;20848;-91
2022/06/16 05:21:27;;;;;;;8.20;2.00;;;;;;;12.28;100.00;98878.97;5062707;28;20059;-90
2022/06/16 05:23:52;;;;;;;7.10;2.08;;;;;;;12.33;100.00;98881.50;5063557;28;20497;-90
2022/06/16 05:26:20;;;;;;;7.20;2.05;;;;;;;12.31;100.00;98868.47;5047941;28;20222;-91
2022/06/16 05:28:46;;;;;;;8.40;2.20;;;;;;;12.33;100.00;98881.50;5066034;28;20368;-90
2022/06/16 05:31:11;;;;;;;7.68;1.98;;;;;;;12.29;100.00;98873.72;5092798;28;20701;-91
2022/06/16 05:33:37;;;;;;;7.05;2.20;;;;;;;12.38;100.00;98877.09;5067982;28;20397;-90
2022/06/16 05:36:09;;;;;;;8.27;2.00;;;;;;;12.38;100.00;98879.69;5064579;28;20024;-90
2022/06/16 05:38:35;;;;;;;7.03;1.98;;;;;;;12.38;100.00;98884.94;5063761;28;20031;-90
2022/06/16 05:41:07;;;;;;;6.70;1.80;;;;;;;12.41;100.00;98884.88;5064820;28;20037;-90
2022/06/16 05:43:34;;;;;;;8.50;1.77;;;;;;;12.50;100.00;98882.13;5067100;28;20031;-90
2022/06/16 05:46:22;;;;;;;7.68;1.70;;;;;;;12.59;100.00;98889.81;5070201;28;20024;-90
2022/06/16 05:48:48;;;;;;;5.68;1.92;;;;;;;12.68;100.00;98888.84;5062897;28;20050;-92
2022/06/16 05:51:15;;;;;;;9.15;2.30;;;;;;;12.79;100.00;98884.31;5063821;28;20591;-91
2022/06/16 05:53:44;;;;;;;10.65;2.17;;;;;;;12.91;100.00;98885.84;5068161;28;20032;-90
2022/06/16 05:56:11;;;;;;;7.65;2.05;;;;;;;12.96;100.00;98885.78;5048687;28;20040;-89
2022/06/16 05:58:37;;;;;;;6.40;1.77;;;;;;;12.97;100.00;98884.88;5057974;28;20079;-89
2022/06/16 06:01:03;;;;;;;7.05;1.80;;;;;;;13.00;100.00;98889.19;5051876;28;20472;-90
2022/06/16 06:03:29;;;;;;;8.23;2.05;;;;;;;12.98;100.00;98899.69;5047651;28;20171;-90
2022/06/16 06:05:54;;;;;;;7.13;1.90;;;;;;;13.04;100.00;98906.59;5044011;28;20028;-91
2022/06/16 06:16:40;;;;;;;8.38;1.88;;;;;;;13.03;100.00;98910.97;5046755;28;20107;-89
2022/06/16 06:19:23;;;;;;;8.50;2.00;;;;;;;12.96;100.00;98910.19;5047118;28;20033;-90
2022/06/16 06:22:10;;;;;;;7.07;1.87;;;;;;;13.02;100.00;98911.00;5045959;28;20534;-90
2022/06/16 06:24:40;;;;;;;6.95;1.83;;;;;;;13.01;100.00;98904.88;5049966;28;20303;-91
2022/06/16 06:27:33;;;;;;;6.70;1.90;;;;;;;12.98;100.00;98897.97;5052652;28;20044;-91
2022/06/16 06:30:00;;;;;;;6.73;2.00;;;;;;;13.01;100.00;98890.94;5060286;28;20293;-91
2022/06/16 06:32:29;;;;;;;8.18;2.08;;;;;;;12.97;100.00;98891.00;5067918;28;20013;-90
2022/06/16 06:34:54;;;;;;;7.22;2.10;;;;;;;13.00;100.00;98883.97;5051385;28;20032;-91
2022/06/16 06:37:23;;;;;;;6.30;1.90;;;;;;;12.99;100.00;98875.25;5051592;28;20024;-92
2022/06/16 06:39:50;;;;;;;6.45;1.90;;;;;;;12.92;100.00;98864.03;5080841;28;20056;-91
2022/06/16 06:42:16;;;;;;;7.40;1.85;;;;;;;13.07;100.00;98885.59;5052272;28;20033;-90
2022/06/16 06:44:42;;;;;;;6.57;1.77;;;;;;;13.14;100.00;98892.47;5089805;28;20261;-90
2022/06/16 06:47:10;;;;;;;7.15;1.85;;;;;;;13.26;100.00;98887.00;5092904;28;20033;-89
2022/06/16 06:49:36;;;;;;;6.40;1.90;;;;;;;13.40;100.00;98894.66;5072117;28;20112;-90
2022/06/16 06:52:02;;;;;;;6.53;1.85;;;;;;;13.46;100.00;98889.28;5058727;28;20057;-91
2022/06/16 06:54:33;;;;;;;6.63;1.80;;;;;;;13.49;100.00;98894.47;5057237;28;20094;-90
2022/06/16 06:56:59;;;;;;;8.48;1.85;;;;;;;13.56;100.00;98897.00;5067695;28;20113;-91
2022/06/16 06:59:25;;;;;;;8.07;1.80;;;;;;;13.60;100.00;98904.75;5063633;28;20587;-90
2022/06/16 07:01:51;;;;;;;6.95;2.00;;;;;;;13.66;100.00;98907.25;5081059;28;20048;-91
2022/06/16 07:04:21;;;;;;;8.48;1.98;;;;;;;13.62;100.00;98910.81;5062758;28;20405;-91
2022/06/16 07:06:47;;;;;;;7.70;1.92;;;;;;;13.73;100.00;98915.84;5066542;28;20278;-92
2022/06/16 07:09:17;;;;;;;6.32;1.90;;;;;;;13.78;100.00;98911.41;5066939;28;20032;-94
2022/06/16 07:11:45;;;;;;;7.43;1.88;;;;;;;13.92;100.00;98902.41;5065558;28;20028;-92
2022/06/16 07:14:14;;;;;;;6.55;2.00;;;;;;;13.97;100.00;98897.91;5068541;28;20104;-92
2022/06/16 07:16:40;;;;;;;7.40;1.85;;;;;;;14.23;100.00;98909.63;5098244;28;20028;-88
2022/06/16 07:19:06;;;;;;;7.97;1.98;;;;;;;14.37;100.00;98909.31;5062063;28;20404;-87
2022/06/16 07:21:37;;;;;;;7.22;1.75;;;;;;;14.53;100.00;98900.22;5088786;27;20062;-87
2022/06/16 07:24:03;;;;;;;5.32;1.55;;;;;;;14.52;100.00;98898.47;5063676;28;20093;-88
2022/06/16 07:26:28;;;;;;;6.75;1.80;;;;;;;14.54;100.00;98894.03;5065359;28;20131;-87
2022/06/16 07:28:57;;;;;;;6.85;1.75;;;;;;;14.60;100.00;98891.28;5065192;28;20110;-88
2022/06/16 07:31:23;;;;;;;7.20;1.67;;;;;;;14.73;100.00;98898.91;5060560;28;20025;-87
2022/06/16 07:33:48;;;;;;;6.35;1.80;;;;;;;14.78;100.00;98883.91;5060613;28;20048;-87
2022/06/16 07:36:14;;;;;;;7.07;2.03;;;;;;;14.85;100.00;98890.75;5092593;27;20568;-87
2022/06/16 07:38:40;;;;;;;7.50;1.70;;;;;;;14.87;100.00;98886.31;5061220;28;20035;-89
2022/06/16 07:43:50;;;;;;;6.88;1.90;;;;;;;15.11;100.00;98889.22;5067269;28;20511;-87
2022/06/16 07:46:16;;;;;;;6.10;1.73;;;;;;;15.35;100.00;98888.59;5065114;28;20036;-89
2022/06/16 07:48:43;;;;;;;6.70;1.80;;;;;;;15.29;100.00;98880.00;5062498;28;20036;-89
2022/06/16 07:51:08;;;;;;;6.80;1.63;;;;;;;15.38;100.00;98879.78;5063953;28;20037;-89
2022/06/16 07:53:34;;;;;;;6.10;1.80;;;;;;;15.62;100.00;98883.50;5068280;28;20064;-89
2022/06/16 07:56:00;;;;;;;5.47;1.70;;;;;;;15.69;100.00;98887.66;5064829;28;20064;-87
2022/06/16 07:58:31;;;;;;;6.10;1.50;;;;;;;15.79;100.00;98883.03;5068795;28;20036;-88
2022/06/16 08:00:59;;;;;;;5.65;1.40;;;;;;;15.80;100.00;98881.31;5060781;28;20036;-89
2022/06/16 08:03:29;;;;;;;7.72;1.63;;;;;;;15.64;100.00;98873.81;5066925;28;20030;-88
2022/06/16 08:09:11;;;;;;;4.32;1.23;;;;;;;15.91;100.00;98880.97;5065265;28;20067;-88
2022/06/16 08:14:23;;;;;;;7.25;1.50;;;;;;;16.12;100.00;98890.88;5062494;28;20557;-89
2022/06/16 08:17:10;;;;;;;5.03;1.10;;;;;;;16.14;100.00;98891.69;5084669;28;20019;-89
2022/06/16 08:19:48;;;;;;;5.20;1.30;;;;;;;16.40;100.00;98897.09;5075785;28;20052;-88
2022/06/16 08:26:08;;;;;;;3.75;1.10;;;;;;;16.87;78.04;98894.72;5095271;28;20036;-93
2022/06/16 08:32:12;;;;;;;5.28;1.00;;;;;;;16.92;79.72;98868.25;5086774;28;20062;-90
2022/06/16 08:34:42;;;;;;;4.85;1.05;;;;;;;16.91;76.58;98867.41;5083312;28;20055;-90
2022/06/16 08:37:08;;;;;;;5.65;1.10;;;;;;;16.81;74.81;98866.81;5085130;28;20066;-92
2022/06/16 08:39:35;;;;;;;3.88;1.00;;;;;;;16.89;76.44;98872.69;5083882;28;20032;-88
2022/06/16 08:42:22;;;;;;;3.75;0.80;;;;;;;16.80;75.16;98870.34;5086222;28;20119;-89
2022/06/16 08:45:00;;;;;;;4.05;0.90;;;;;;;16.82;77.49;98865.88;5080014;28;20378;-88
2022/06/16 08:47:32;;;;;;;4.05;1.00;;;;;;;17.16;77.96;98862.16;5080234;28;20028;-88
2022/06/16 08:50:13;;;;;;;3.25;1.08;;;;;;;17.28;82.62;98854.75;5076181;28;20024;-89
2022/06/16 08:53:04;;;;;;;6.22;1.20;;;;;;;17.03;83.53;98840.63;5106294;27;20033;-87
2022/06/16 08:55:35;;;;;;;5.32;1.05;;;;;;;16.91;79.07;98841.06;5072972;28;20052;-88
2022/06/16 08:58:23;;;;;;;4.38;0.90;;;;;;;17.04;82.40;98826.53;5081474;28;20059;-87
2022/06/16 09:00:58;;;;;;;3.50;0.90;;;;;;;17.48;85.07;98825.03;5103232;27;20021;-87
2022/06/16 09:03:51;;;;;;;4.05;1.00;;;;;;;17.17;82.72;98820.84;5075554;28;20097;-88
2022/06/16 09:06:45;;;;;;;5.63;1.00;;;;;;;17.67;88.45;98818.16;5092459;28;20043;-92
2022/06/16 09:12:57;;;;;;;6.03;1.10;;;;;;;18.27;83.28;98841.44;5084917;28;19942;-91
2022/06/16 09:15:33;;;;;;;5.57;1.23;;;;;;;18.04;73.16;98835.28;5108755;27;20043;-89
2022/06/16 09:18:22;;;;;;;4.65;1.02;;;;;;;18.05;80.70;98842.28;5079120;28;20037;-90
2022/06/16 09:20:56;;;;;;;8.75;1.20;;;;;;;18.57;84.71;98847.28;5084968;28;20070;-89
2022/06/16 09:23:31;;;;;;;5.57;1.10;;;;;;;18.68;85.40;98846.84;5106362;28;20025;-94
2022/06/16 09:25:56;;;;;;;6.57;1.08;;;;;;;19.23;85.62;98848.13;5096853;28;20056;-92
2022/06/16 09:28:35;;;;;;;4.80;1.10;;;;;;;18.75;79.80;98845.69;5070097;28;20072;-91
2022/06/16 09:31:06;;;;;;;3.60;0.90;;;;;;;18.89;80.81;98845.13;5070903;28;21474;-90
2022/06/16 09:33:36;;;;;;;4.50;1.00;;;;;;;19.29;81.51;98866.41;5071519;28;20496;-92
2022/06/16 09:36:08;;;;;;;5.53;1.13;;;;;;;19.54;85.46;98873.25;5068782;28;20064;-91
2022/06/16 09:39:17;;;;;;;3.13;0.93;;;;;;;19.16;77.52;98868.69;5065578;28;20020;-90
2022/06/16 09:44:58;;;;;;;5.13;1.00;;;;;;;19.16;80.36;98868.69;4989529;28;20349;-92
2022/06/16 09:47:32;;;;;;;4.28;0.90;;;;;;;19.11;79.40;98862.75;4971110;28;20502;-92
2022/06/16 09:50:07;;;;;;;4.57;0.98;;;;;;;19.02;84.62;98863.13;4971849;28;20049;-91
2022/06/16 09:52:48;;;;;;;4.28;1.02;;;;;;;19.12;82.69;98867.09;4985637;28;20034;-91
2022/06/16 09:55:23;;;;;;;4.20;1.00;;;;;;;19.12;82.65;98866.25;4972922;28;20101;-92
2022/06/16 09:57:54;;;;;;;4.35;1.10;;;;;;;19.07;86.68;98872.59;4990739;28;20165;-91
2022/06/16 10:00:22;;;;;;;5.63;1.20;;;;;;;18.91;85.50;98875.03;4980386;28;20042;-91
2022/06/16 10:03:00;;;;;;;5.00;1.10;;;;;;;18.89;82.37;98879.50;4991855;28;20033;-91
2022/06/16 10:05:37;;;;;;;4.40;1.00;;;;;;;19.17;78.42;98885.44;4991220;28;20014;-92
2022/06/16 10:08:36;;;;;;;6.50;1.00;;;;;;;19.25;78.53;98883.31;4987944;28;20061;-92
2022/06/16 10:11:31;;;;;;;5.18;1.00;;;;;;;19.49;72.46;98872.59;4991533;28;20092;-92
2022/06/16 10:14:35;;;;;;;4.32;1.30;;;;;;;19.89;79.27;98876.16;4977549;28;20115;-92
2022/06/16 10:17:07;;;;;;;3.65;0.93;;;;;;;20.23;70.16;98890.47;5077452;28;20052;-92
2022/06/16 10:19:41;;;;;;;5.20;1.08;;;;;;;20.39;62.15;98869.41;5090702;28;20037;-92
2022/06/16 10:22:18;;;;;;;3.85;1.20;;;;;;;21.08;70.75;98892.59;5091475;28;20036;-92
2022/06/16 10:25:07;;;;;;;8.48;1.60;;;;;;;20.79;68.86;98894.91;5089212;28;20051;-94
2022/06/16 10:27:39;;;;;;;4.82;1.15;;;;;;;21.35;61.03;98878.88;5058868;28;20044;-92
2022/06/16 10:30:08;;;;;;;6.82;1.42;;;;;;;21.23;62.93;98879.50;5074163;28;20038;-93
2022/06/16 10:32:45;;;;;;;4.15;1.10;;;;;;;20.79;64.58;98886.06;5084192;28;20029;-93
2022/06/16 10:35:22;;;;;;;6.75;1.20;;;;;;;20.78;64.53;98882.56;5079080;28;20032;-92
2022/06/16 10:37:53;;;;;;;9.18;1.40;;;;;;;20.74;68.71;98878.34;5069179;28;20400;-91
2022/06/16 10:40:31;;;;;;;4.43;1.20;;;;;;;20.88;69.18;98876.84;5072882;28;20036;-92
2022/06/16 10:43:08;;;;;;;3.80;1.17;;;;;;;22.66;76.24;98871.03;5077029;28;20040;-91
2022/06/16 10:45:40;;;;;;;5.60;1.30;;;;;;;22.10;79.95;98871.41;5080273;28;20028;-91
2022/06/16 10:48:19;;;;;;;5.53;1.10;;;;;;;21.65;69.65;98879.09;5070354;28;20107;-92
2022/06/16 10:50:56;;;;;;;6.88;1.58;;;;;;;21.33;69.42;98866.63;5067290;28;20016;-91
2022/06/16 10:53:26;;;;;;;5.47;1.17;;;;;;;21.26;68.18;98869.56;5065328;28;20025;-93
2022/06/16 10:56:38;;;;;;;5.25;1.30;;;;;;;21.34;65.84;98861.25;5064303;28;20047;-95
2022/06/16 10:59:12;;;;;;;4.97;1.23;;;;;;;21.13;67.88;98865.84;5019402;28;20068;-93
2022/06/16 11:01:55;;;;;;;5.75;1.30;;;;;;;21.71;79.96;98869.09;5003753;28;20057;-93
2022/06/16 11:04:21;;;;;;;;;;;;;;;21.47;68.04;98872.06;5002912;28;20097;-93
2022/06/16 11:06:54;;;;;;;5.00;1.08;;;;;;;21.13;65.78;98864.03;5023943;28;20011;-92
2022/06/16 11:09:32;;;;;;;4.53;1.00;;;;;;;21.79;73.83;98869.53;5017092;28;20086;-93
2022/06/16 11:12:19;;;;;;;4.75;1.10;;;;;;;21.94;63.70;98883.81;5010328;28;20052;-93
2022/06/16 11:18:48;;;;;;;5.13;1.13;;;;;;;22.14;63.09;98888.91;5016414;28;20050;-93
2022/06/16 11:21:21;;;;;;;4.55;1.00;;;;;;;22.68;60.07;98909.84;5009368;28;20099;-91
2022/06/16 11:24:23;;;;;;;4.63;1.00;;;;;;;22.57;58.81;98906.94;4995046;28;20088;-92
2022/06/16 11:26:53;;;;;;;3.67;1.00;;;;;;;22.27;60.66;98917.44;5001566;28;20126;-93
2022/06/16 11:29:34;;;;;;;4.22;0.95;;;;;;;21.64;56.92;98933.13;4996299;28;20134;-92
2022/06/16 11:32:20;;;;;;;5.43;0.95;;;;;;;21.66;60.42;98933.03;5018044;28;20061;-93
2022/06/16 11:34:47;;;;;;;3.28;0.82;;;;;;;22.07;57.78;98927.31;5040488;28;20550;-92
2022/06/16 11:37:41;;;;;;;3.10;0.80;;;;;;;22.19;64.33;98922.31;5012661;28;20033;-92
2022/06/16 11:41:11;;;;;;;5.13;1.08;;;;;;;22.24;59.56;98930.88;5010312;28;20037;-93
2022/06/16 11:44:09;;;;;;;4.60;1.00;;;;;;;22.11;57.92;98933.34;5038400;28;20061;-92
2022/06/16 11:49:59;;;;;;;4.20;1.20;;;;;;;21.67;59.67;98936.53;5027605;28;20855;-94
2022/06/16 11:52:54;;;;;;;5.25;1.13;;;;;;;21.73;66.06;98942.41;5025553;28;20820;-91
2022/06/16 11:55:34;;;;;;;7.18;1.40;;;;;;;21.65;72.69;98950.75;5083550;28;20071;-93
2022/06/16 11:58:32;;;;;;;7.65;1.30;;;;;;;21.46;70.64;98953.47;5064237;28;20039;-93
2022/06/16 12:01:35;;;;;;;6.03;1.20;;;;;;;21.52;72.04;98948.78;5064182;28;20048;-94
2022/06/16 12:04:41;;;;;;;5.75;1.27;;;;;;;21.67;72.93;98940.06;5062167;28;20024;-90
2022/06/16 12:07:41;;;;;;;6.10;1.30;;;;;;;22.51;79.09;98939.19;5095385;28;20052;-93
2022/06/16 12:10:10;;;;;;;5.28;1.20;;;;;;;23.11;74.47;98937.59;5065168;28;22040;-91
2022/06/16 12:12:47;;;;;;;7.47;1.55;;;;;;;22.54;73.42;98928.38;5067279;28;20024;-92
2022/06/16 12:15:34;;;;;;;7.60;1.58;;;;;;;22.33;80.81;98936.59;5065496;28;20048;-91
2022/06/16 12:18:17;;;;;;;6.55;1.88;;;;;;;21.72;77.54;98937.19;5068649;28;20510;-91
2022/06/16 12:21:02;;;;;;;7.15;1.50;;;;;;;21.31;78.60;98944.47;5066949;28;20044;-91
2022/06/16 12:23:50;;;;;;;7.28;1.52;;;;;;;21.94;82.98;98947.53;5096930;28;20032;-92
2022/06/16 12:26:19;;;;;;;6.85;1.55;;;;;;;21.81;81.64;98948.16;5067312;28;20051;-92
2022/06/16 12:29:20;;;;;;;6.53;1.45;;;;;;;22.27;83.17;98933.38;5097103;28;20024;-92
2022/06/16 12:31:57;;;;;;;7.72;1.40;;;;;;;22.87;76.37;98934.53;5064911;28;20375;-91
2022/06/16 12:34:50;;;;;;;7.93;1.67;;;;;;;22.61;77.62;98932.41;5063372;28;20024;-91
2022/06/16 12:37:23;;;;;;;8.98;1.77;;;;;;;23.31;73.04;98917.81;5042676;28;20040;-91
2022/06/16 12:39:58;;;;;;;5.95;1.42;;;;;;;22.85;78.84;98931.97;5064411;28;20043;-92
2022/06/16 12:42:29;;;;;;;6.45;1.58;;;;;;;23.93;81.45;98923.00;5064679;28;20446;-92
2022/06/16 12:45:01;;;;;;;6.40;1.42;;;;;;;23.41;78.57;98913.69;5063368;28;20023;-91